createdAt,value
2022-11-28T00:01:41.991Z,0.89
2022-11-28T00:04:09.061Z,0.98
2022-11-28T00:06:42.615Z,0.92
2022-11-28T00:09:09.085Z,0.92
2022-11-28T00:11:35.571Z,0.94
2022-11-28T00:14:02.611Z,0.96
2022-11-28T00:16:29.029Z,1.17
2022-11-28T00:18:55.523Z,1.25
2022-11-28T00:21:25.040Z,1.13
2022-11-28T00:23:52.350Z,1.11
2022-11-28T00:26:31.253Z,0.96
2022-11-28T00:29:00.611Z,0.97
2022-11-28T00:31:30.559Z,1.04
2022-11-28T00:33:58.249Z,0.90
2022-11-28T00:36:25.178Z,0.80
2022-11-28T00:38:52.206Z,0.78
2022-11-28T00:41:24.152Z,0.80
2022-11-28T00:43:52.400Z,0.35
2022-11-28T00:46:21.794Z,0.55
2022-11-28T00:48:49.069Z,0.52
2022-11-28T00:51:27.638Z,0.57
2022-11-28T00:53:55.981Z,0.83
2022-11-28T00:56:25.590Z,0.69
2022-11-28T00:58:52.915Z,0.94
2022-11-28T01:01:22.717Z,0.93
2022-11-28T01:03:51.170Z,0.96
2022-11-28T01:06:29.798Z,0.92
2022-11-28T01:08:57.785Z,0.72
2022-11-28T01:11:24.895Z,0.83
2022-11-28T01:13:54.447Z,0.41
2022-11-28T01:16:20.882Z,0.77
2022-11-28T01:18:47.351Z,0.75
2022-11-28T01:21:14.563Z,0.95
2022-11-28T01:23:41.318Z,0.62
2022-11-28T01:26:09.487Z,0.75
2022-11-28T01:28:36.234Z,0.94
2022-11-28T01:31:07.137Z,0.68
2022-11-28T01:33:34.808Z,0.88
2022-11-28T01:36:01.746Z,0.73
2022-11-28T01:38:28.482Z,0.75
2022-11-28T01:40:56.066Z,0.57
2022-11-28T01:43:23.349Z,0.71
2022-11-28T01:45:50.551Z,0.66
2022-11-28T01:48:42.355Z,0.40
2022-11-28T01:51:10.122Z,0.70
2022-11-28T01:53:41.357Z,0.43
2022-11-28T01:56:13.186Z,0.39
2022-11-28T01:58:42.886Z,0.56
2022-11-28T02:01:10.467Z,0.71
2022-11-28T02:03:44.219Z,0.76
2022-11-28T02:06:13.150Z,0.89
2022-11-28T02:08:39.650Z,0.90
2022-11-28T02:11:18.397Z,0.99
2022-11-28T02:14:04.973Z,1.02
2022-11-28T02:16:52.450Z,0.82
2022-11-28T02:19:24.526Z,0.74
2022-11-28T02:22:22.857Z,0.71
2022-11-28T02:24:58.254Z,0.60
2022-11-28T02:27:35.633Z,0.80
2022-11-28T02:30:13.833Z,0.61
2022-11-28T02:32:52.948Z,0.81
2022-11-28T02:35:43.945Z,1.06
2022-11-28T02:38:26.117Z,1.02
2022-11-28T02:41:06.208Z,1.09
2022-11-28T02:43:52.053Z,1.14
2022-11-28T02:46:45.849Z,1.15
2022-11-28T02:49:54.390Z,1.19
2022-11-28T02:52:33.625Z,0.93
2022-11-28T02:55:01.358Z,1.05
2022-11-28T02:57:48.103Z,1.00
2022-11-28T03:00:23.441Z,1.01
2022-11-28T03:02:58.479Z,0.94
2022-11-28T03:05:39.345Z,0.64
2022-11-28T03:08:47.814Z,0.39
2022-11-28T03:11:29.414Z,0.61
2022-11-28T03:14:23.751Z,0.66
2022-11-28T03:17:17.635Z,0.63
2022-11-28T03:20:08.928Z,0.71
2022-11-28T03:22:50.714Z,0.58
2022-11-28T03:25:30.853Z,0.61
2022-11-28T03:28:06.478Z,0.61
2022-11-28T03:30:48.575Z,0.89
2022-11-28T03:33:17.037Z,0.93
2022-11-28T03:35:48.770Z,0.96
2022-11-28T03:38:35.065Z,0.76
2022-11-28T03:41:07.304Z,0.93
2022-11-28T03:43:41.835Z,0.94
2022-11-28T03:46:13.592Z,1.05
2022-11-28T03:48:45.789Z,0.88
2022-11-28T03:51:15.542Z,1.06
2022-11-28T03:54:00.532Z,0.99
2022-11-28T03:56:39.897Z,0.85
2022-11-28T03:59:16.493Z,0.60
2022-11-28T04:01:56.442Z,0.56
2022-11-28T04:04:32.112Z,0.84
2022-11-28T04:07:09.470Z,0.82
2022-11-28T04:09:44.104Z,0.92
2022-11-28T04:12:50.478Z,0.80
2022-11-28T04:15:29.217Z,0.53
2022-11-28T04:18:07.365Z,0.23
2022-11-28T04:20:42.203Z,0.45
2022-11-28T04:23:13.033Z,0.51
2022-11-28T04:25:45.153Z,0.35
2022-11-28T04:28:18.665Z,0.65
2022-11-28T04:30:48.232Z,0.63
2022-11-28T04:33:18.907Z,0.57
2022-11-28T04:35:50.691Z,0.64
2022-11-28T04:38:18.370Z,0.83
2022-11-28T04:40:53.700Z,0.76
2022-11-28T04:43:51.038Z,0.43
2022-11-28T04:46:25.357Z,0.56
2022-11-28T04:48:51.720Z,0.61
2022-11-28T04:51:43.078Z,0.84
2022-11-28T04:54:25.183Z,1.00
2022-11-28T04:57:01.114Z,1.03
2022-11-28T04:59:30.313Z,1.04
2022-11-28T05:01:59.995Z,0.92
2022-11-28T05:04:26.994Z,0.80
2022-11-28T05:07:04.836Z,0.63
2022-11-28T05:09:31.536Z,0.41
2022-11-28T05:11:57.904Z,0.53
2022-11-28T05:14:24.633Z,0.79
2022-11-28T05:16:51.543Z,0.86
2022-11-28T05:19:18.401Z,0.75
2022-11-28T05:21:44.919Z,0.56
2022-11-28T05:24:11.854Z,0.52
2022-11-28T05:26:38.255Z,0.59
2022-11-28T05:29:05.069Z,0.83
2022-11-28T05:31:31.676Z,0.78
2022-11-28T05:33:58.065Z,0.61
2022-11-28T05:36:24.406Z,0.59
2022-11-28T05:38:51.098Z,0.66
2022-11-28T05:41:29.373Z,0.88
2022-11-28T05:43:56.607Z,0.75
2022-11-28T05:46:23.635Z,0.98
2022-11-28T05:48:50.062Z,0.89
2022-11-28T05:51:16.998Z,0.83
2022-11-28T05:53:44.281Z,0.67
2022-11-28T05:56:13.442Z,0.83
2022-11-28T05:58:40.199Z,0.95
2022-11-28T06:01:28.007Z,1.01
2022-11-28T06:04:00.565Z,0.83
2022-11-28T06:06:29.838Z,0.78
2022-11-28T06:08:56.609Z,0.76
2022-11-28T06:11:25.692Z,0.63
2022-11-28T06:13:52.610Z,0.47
2022-11-28T06:16:21.609Z,0.65
2022-11-28T06:18:49.066Z,0.65
2022-11-28T06:21:16.055Z,0.44
2022-11-28T06:23:43.049Z,0.50
2022-11-28T06:26:14.282Z,0.52
2022-11-28T06:28:41.496Z,0.59
2022-11-28T06:31:19.923Z,0.60
2022-11-28T06:33:46.792Z,0.63
2022-11-28T06:36:14.694Z,0.66
2022-11-28T06:38:41.219Z,0.71
2022-11-28T06:41:11.393Z,0.82
2022-11-28T06:43:38.320Z,0.82
2022-11-28T06:46:05.335Z,0.54
2022-11-28T06:48:32.323Z,0.77
2022-11-28T06:51:04.409Z,0.66
2022-11-28T06:53:31.725Z,0.64
2022-11-28T06:55:58.532Z,0.58
2022-11-28T06:58:24.926Z,0.64
2022-11-28T07:00:51.693Z,0.53
2022-11-28T07:03:18.927Z,0.47
2022-11-28T07:05:45.234Z,0.46
2022-11-28T07:08:11.604Z,0.59
2022-11-28T07:10:38.979Z,0.47
2022-11-28T07:13:05.812Z,0.65
2022-11-28T07:15:32.277Z,0.59
2022-11-28T07:17:59.433Z,0.84
2022-11-28T07:20:25.762Z,0.96
2022-11-28T07:22:52.094Z,0.75
2022-11-28T07:25:18.831Z,0.73
2022-11-28T07:27:45.218Z,0.82
2022-11-28T07:30:11.808Z,0.79
2022-11-28T07:32:42.170Z,0.80
2022-11-28T07:35:08.924Z,0.77
2022-11-28T07:37:36.123Z,0.81
2022-11-28T07:40:02.954Z,0.76
2022-11-28T07:42:29.287Z,0.81
2022-11-28T07:44:55.666Z,0.79
2022-11-28T07:47:22.454Z,0.89
2022-11-28T07:49:48.782Z,0.95
2022-11-28T07:52:15.852Z,0.89
2022-11-28T07:54:42.206Z,1.00
2022-11-28T07:57:12.418Z,0.75
2022-11-28T07:59:40.076Z,0.82
2022-11-28T08:02:07.273Z,0.79
2022-11-28T08:04:33.794Z,0.80
2022-11-28T08:07:00.547Z,0.85
2022-11-28T08:09:26.893Z,1.13
2022-11-28T08:11:53.233Z,1.14
2022-11-28T08:14:20.760Z,1.25
2022-11-28T08:16:47.260Z,1.31
2022-11-28T08:19:13.728Z,1.39
2022-11-28T08:21:40.953Z,1.40
2022-11-28T08:24:08.012Z,1.67
2022-11-28T08:26:35.182Z,1.21
2022-11-28T08:29:03.778Z,1.05
2022-11-28T08:31:33.235Z,1.06
2022-11-28T08:34:02.050Z,1.08
2022-11-28T08:36:29.538Z,1.01
2022-11-28T08:39:16.696Z,1.11
2022-11-28T08:41:43.473Z,1.25
2022-11-28T08:44:10.174Z,1.06
2022-11-28T08:46:36.632Z,1.09
2022-11-28T08:49:04.896Z,1.21
2022-11-28T08:51:32.203Z,1.36
2022-11-28T08:53:59.910Z,1.42
2022-11-28T08:56:27.745Z,1.38
2022-11-28T08:58:54.812Z,1.07
2022-11-28T09:01:23.702Z,1.16
2022-11-28T09:03:51.631Z,1.65
2022-11-28T09:06:18.483Z,1.59
2022-11-28T09:08:45.168Z,1.13
2022-11-28T09:11:15.089Z,1.15
2022-11-28T09:13:41.773Z,1.24
2022-11-28T09:16:08.657Z,1.37
2022-11-28T09:18:35.760Z,1.18
2022-11-28T09:21:10.414Z,1.51
2022-11-28T09:23:39.063Z,1.61
2022-11-28T09:26:09.335Z,1.69
2022-11-28T09:28:35.739Z,1.74
2022-11-28T09:31:04.395Z,1.82
2022-11-28T09:33:31.773Z,1.73
2022-11-28T09:35:58.287Z,1.70
2022-11-28T09:38:25.574Z,1.75
2022-11-28T09:40:52.519Z,1.82
2022-11-28T09:43:31.469Z,1.66
2022-11-28T09:46:02.549Z,1.80
2022-11-28T09:48:41.590Z,1.74
2022-11-28T09:51:40.942Z,1.76
2022-11-28T09:54:34.781Z,1.71
2022-11-28T09:57:04.059Z,1.60
2022-11-28T09:59:30.865Z,1.66
2022-11-28T10:02:38.899Z,1.65
2022-11-28T10:05:17.015Z,1.79
2022-11-28T10:07:54.632Z,1.95
2022-11-28T10:10:35.514Z,2.31
2022-11-28T10:13:59.985Z,2.22
2022-11-28T10:16:33.324Z,2.00
2022-11-28T10:19:03.914Z,1.94
2022-11-28T10:21:39.007Z,2.40
2022-11-28T10:24:13.329Z,2.42
2022-11-28T10:26:50.589Z,2.18
2022-11-28T10:29:33.478Z,2.22
2022-11-28T10:32:03.981Z,2.17
2022-11-28T10:35:08.890Z,2.20
2022-11-28T10:37:38.937Z,2.15
2022-11-28T10:40:43.764Z,2.29
2022-11-28T10:43:59.603Z,2.30
2022-11-28T10:46:38.086Z,2.17
2022-11-28T10:49:30.928Z,2.43
2022-11-28T10:52:27.452Z,2.26
2022-11-28T10:55:15.581Z,2.49
2022-11-28T10:58:23.981Z,2.21
2022-11-28T11:00:55.449Z,2.30
2022-11-28T11:03:38.545Z,2.42
2022-11-28T11:06:05.759Z,2.27
2022-11-28T11:08:40.143Z,2.55
2022-11-28T11:11:28.210Z,2.46
2022-11-28T11:14:09.647Z,2.56
2022-11-28T11:16:59.127Z,2.74
2022-11-28T11:19:31.419Z,2.85
2022-11-28T11:22:20.749Z,2.69
2022-11-28T11:25:15.705Z,2.74
2022-11-28T11:28:25.800Z,3.03
2022-11-28T11:31:00.637Z,3.13
2022-11-28T11:33:30.125Z,2.92
2022-11-28T11:35:56.600Z,3.05
2022-11-28T11:38:23.240Z,2.95
2022-11-28T11:40:50.759Z,3.44
2022-11-28T11:43:32.877Z,3.67
2022-11-28T11:46:11.247Z,3.45
2022-11-28T11:48:41.067Z,3.17
2022-11-28T11:51:20.925Z,3.40
2022-11-28T11:53:47.295Z,3.88
2022-11-28T11:56:14.618Z,3.96
2022-11-28T11:58:46.997Z,3.78
2022-11-28T12:28:32.982Z,5.09
2022-11-28T12:31:08.363Z,4.77
2022-11-28T12:33:58.168Z,4.81
2022-11-28T12:36:34.859Z,4.60
2022-11-28T12:39:13.456Z,4.70
2022-11-28T12:41:56.094Z,4.57
2022-11-28T12:44:35.071Z,5.09
2022-11-28T12:47:07.429Z,4.92
2022-11-28T12:49:52.452Z,5.19
2022-11-28T12:52:40.485Z,5.41
2022-11-28T12:55:41.111Z,5.17
2022-11-28T12:58:35.382Z,4.97
2022-11-28T13:01:35.843Z,5.14
2022-11-28T13:04:11.703Z,5.27
2022-11-28T13:06:47.278Z,5.31
2022-11-28T13:09:37.849Z,5.46
2022-11-28T13:12:41.417Z,5.34
2022-11-28T13:15:11.587Z,5.11
2022-11-28T13:17:56.015Z,5.12
2022-11-28T13:20:30.119Z,5.08
2022-11-28T13:23:13.715Z,5.00
2022-11-28T13:25:58.599Z,4.78
2022-11-28T13:29:05.950Z,4.58
2022-11-28T13:31:47.360Z,4.69
2022-11-28T13:34:17.458Z,4.64
2022-11-28T13:39:50.055Z,4.82
2022-11-28T13:45:31.999Z,4.82
2022-11-28T13:48:00.350Z,4.68
2022-11-28T13:50:35.031Z,4.79
2022-11-28T13:53:07.696Z,4.60
2022-11-28T13:55:46.417Z,4.70
2022-11-28T13:58:28.662Z,4.63
2022-11-28T14:01:07.647Z,4.68
2022-11-28T14:03:55.234Z,4.91
2022-11-28T14:06:25.571Z,4.91
2022-11-28T14:09:08.565Z,5.04
2022-11-28T14:12:07.886Z,4.79
2022-11-28T14:14:49.265Z,4.89
2022-11-28T14:17:22.170Z,4.67
2022-11-28T14:20:14.874Z,4.60
2022-11-28T14:23:09.892Z,4.45
2022-11-28T14:25:41.758Z,4.47
2022-11-28T14:28:27.080Z,4.41
2022-11-28T14:31:01.630Z,4.33
2022-11-28T14:33:38.505Z,4.24
2022-11-28T14:36:29.485Z,4.04
2022-11-28T14:39:11.200Z,4.17
2022-11-28T14:42:02.590Z,4.22
2022-11-28T14:44:46.911Z,4.32
2022-11-28T14:47:34.093Z,4.41
2022-11-28T14:50:11.395Z,4.42
2022-11-28T14:52:40.722Z,4.41
2022-11-28T14:55:11.276Z,4.43
2022-11-28T14:57:54.385Z,4.42
2022-11-28T15:00:28.500Z,4.50
2022-11-28T15:03:37.259Z,4.41
2022-11-28T15:06:17.420Z,4.28
2022-11-28T15:08:46.952Z,4.26
2022-11-28T15:11:25.585Z,4.19
2022-11-28T15:14:08.553Z,4.22
2022-11-28T15:16:42.777Z,4.14
2022-11-28T15:19:23.681Z,4.12
2022-11-28T15:21:52.851Z,4.05
2022-11-28T15:24:24.862Z,4.08
2022-11-28T15:26:57.384Z,4.11
2022-11-28T15:29:28.697Z,3.99
2022-11-28T15:31:57.465Z,3.92
2022-11-28T15:34:27.408Z,3.97
2022-11-28T15:37:03.941Z,3.93
2022-11-28T15:39:34.812Z,3.91
2022-11-28T15:42:03.578Z,3.84
2022-11-28T15:44:31.292Z,3.80
2022-11-28T15:46:58.058Z,3.93
2022-11-28T15:49:31.837Z,3.93
2022-11-28T15:52:01.235Z,3.98
2022-11-28T15:54:27.565Z,3.94
2022-11-28T15:56:58.409Z,3.80
2022-11-28T15:59:25.315Z,3.66
2022-11-28T16:01:59.053Z,3.70
2022-11-28T16:04:27.574Z,3.67
2022-11-28T16:06:57.244Z,3.58
2022-11-28T16:09:29.394Z,3.64
2022-11-28T16:11:56.614Z,3.58
2022-11-28T16:14:34.885Z,3.50
2022-11-28T16:17:07.346Z,3.53
2022-11-28T16:19:37.201Z,3.65
2022-11-28T16:22:08.346Z,3.62
2022-11-28T16:24:52.144Z,3.53
2022-11-28T16:27:33.349Z,3.57
2022-11-28T16:30:00.676Z,3.60
2022-11-28T16:32:40.186Z,3.71
2022-11-28T16:35:12.217Z,3.72
2022-11-28T16:37:39.234Z,3.61
2022-11-28T16:40:14.837Z,3.44
2022-11-28T16:42:42.017Z,3.32
2022-11-28T16:45:17.477Z,3.31
2022-11-28T16:47:45.579Z,3.26
2022-11-28T16:50:24.641Z,3.32
2022-11-28T16:52:57.625Z,3.29
2022-11-28T16:55:30.048Z,3.25
2022-11-28T16:58:11.396Z,3.28
2022-11-28T17:00:40.668Z,3.42
2022-11-28T17:03:11.619Z,3.43
2022-11-28T17:05:39.178Z,3.26
2022-11-28T17:08:05.982Z,3.17
2022-11-28T17:10:32.358Z,3.16
2022-11-28T17:12:58.664Z,3.10
2022-11-28T17:15:25.910Z,2.98
2022-11-28T17:17:55.594Z,2.97
2022-11-28T17:20:21.902Z,3.01
2022-11-28T17:22:51.350Z,3.17
2022-11-28T17:25:20.412Z,3.28
2022-11-28T17:27:48.061Z,3.05
2022-11-28T17:30:16.146Z,3.03
2022-11-28T17:32:42.471Z,3.07
2022-11-28T17:35:21.945Z,3.19
2022-11-28T17:37:48.508Z,3.08
2022-11-28T17:40:33.377Z,3.02
2022-11-28T17:43:01.457Z,3.02
2022-11-28T17:45:30.158Z,3.07
2022-11-28T17:47:56.497Z,3.13
2022-11-28T17:50:23.188Z,3.05
2022-11-28T17:52:49.490Z,2.96
2022-11-28T17:55:18.119Z,2.99
2022-11-28T17:57:44.801Z,2.99
2022-11-28T18:00:12.966Z,2.94
2022-11-28T18:02:39.350Z,2.97
2022-11-28T18:05:06.601Z,2.93
2022-11-28T18:07:33.046Z,2.86
2022-11-28T18:09:59.385Z,2.82
2022-11-28T18:12:26.029Z,2.67
2022-11-28T18:14:52.358Z,2.67
2022-11-28T18:17:18.727Z,2.65
2022-11-28T18:19:45.873Z,2.61
2022-11-28T18:22:12.381Z,2.56
2022-11-28T18:24:38.676Z,2.49
2022-11-28T18:27:05.341Z,2.40
2022-11-28T18:29:32.102Z,2.31
2022-11-28T18:31:58.506Z,2.35
2022-11-28T18:34:24.848Z,2.36
2022-11-28T18:36:58.830Z,2.34
2022-11-28T18:39:25.160Z,2.38
2022-11-28T18:41:51.738Z,2.41
2022-11-28T18:44:18.608Z,2.45
2022-11-28T18:46:45.671Z,2.54
2022-11-28T18:49:12.734Z,2.61
2022-11-28T18:51:39.457Z,2.54
2022-11-28T18:54:06.661Z,2.48
2022-11-28T18:56:33.061Z,2.40
2022-11-28T18:58:59.981Z,2.33
2022-11-28T19:01:30.028Z,2.27
2022-11-28T19:03:59.834Z,2.31
2022-11-28T19:06:27.076Z,2.36
2022-11-28T19:08:58.310Z,2.36
2022-11-28T19:11:25.350Z,2.41
2022-11-28T19:13:53.890Z,2.47
2022-11-28T19:16:23.625Z,2.46
2022-11-28T19:18:50.052Z,2.50
2022-11-28T19:21:20.107Z,2.54
2022-11-28T19:23:47.109Z,2.58
2022-11-28T19:26:15.526Z,2.58
2022-11-28T19:28:43.422Z,2.54
2022-11-28T19:31:17.102Z,2.63
2022-11-28T19:33:44.895Z,2.69
2022-11-28T19:36:12.849Z,2.59
2022-11-28T19:38:39.961Z,2.57
2022-11-28T19:41:11.212Z,2.54
2022-11-28T19:43:37.961Z,2.58
2022-11-28T19:46:04.691Z,2.57
2022-11-28T19:48:32.740Z,2.52
2022-11-28T19:50:59.381Z,2.42
2022-11-28T19:53:26.304Z,2.48
2022-11-28T19:55:56.247Z,2.45
2022-11-28T19:58:23.126Z,2.55
2022-11-28T20:00:49.474Z,2.63
2022-11-28T20:03:16.211Z,2.62
2022-11-28T20:05:42.637Z,2.65
2022-11-28T20:08:09.041Z,2.59
2022-11-28T20:10:38.081Z,2.61
2022-11-28T20:13:05.505Z,2.62
2022-11-28T20:15:36.518Z,2.44
2022-11-28T20:18:03.535Z,2.40
2022-11-28T20:20:30.546Z,2.30
2022-11-28T20:22:57.474Z,2.38
2022-11-28T20:25:23.802Z,2.36
2022-11-28T20:27:50.669Z,2.32
2022-11-28T20:30:17.524Z,2.33
2022-11-28T20:32:44.009Z,2.29
2022-11-28T20:35:10.540Z,2.36
2022-11-28T20:37:38.937Z,2.43
2022-11-28T20:40:06.412Z,2.48
2022-11-28T20:42:39.800Z,2.54
2022-11-28T20:45:07.146Z,2.56
2022-11-28T20:47:34.885Z,2.66
2022-11-28T20:50:01.758Z,2.68
2022-11-28T20:52:28.091Z,2.65
2022-11-28T20:54:54.417Z,2.69
2022-11-28T20:57:22.549Z,2.87
2022-11-28T20:59:49.398Z,2.91
2022-11-28T21:02:15.832Z,2.85
2022-11-28T21:04:42.771Z,2.75
2022-11-28T21:07:09.101Z,2.73
2022-11-28T21:09:35.417Z,2.76
2022-11-28T21:12:02.120Z,2.81
2022-11-28T21:14:29.484Z,2.87
2022-11-28T21:16:57.412Z,2.95
2022-11-28T21:19:24.342Z,3.01
2022-11-28T21:21:50.651Z,2.99
2022-11-28T21:24:17.439Z,2.85
2022-11-28T21:26:49.614Z,2.86
2022-11-28T21:29:20.110Z,2.83
2022-11-28T21:31:47.130Z,2.75
2022-11-28T21:34:15.297Z,2.79
2022-11-28T21:36:42.114Z,2.78
2022-11-28T21:39:16.806Z,2.75
2022-11-28T21:41:43.217Z,2.80
2022-11-28T21:44:09.562Z,2.83
2022-11-28T21:46:36.343Z,2.91
2022-11-28T21:49:02.803Z,2.99
2022-11-28T21:51:29.125Z,3.00
2022-11-28T21:53:57.844Z,2.98
2022-11-28T21:56:25.084Z,2.96
2022-11-28T21:58:51.538Z,2.91
2022-11-28T22:01:18.714Z,2.92
2022-11-28T22:03:45.160Z,3.06
2022-11-28T22:06:23.064Z,2.96
2022-11-28T22:08:50.221Z,2.90
2022-11-28T22:11:17.713Z,2.84
2022-11-28T22:13:46.184Z,2.85
2022-11-28T22:16:23.853Z,2.86
2022-11-28T22:18:52.533Z,2.88
2022-11-28T22:24:06.597Z,2.94
2022-11-28T22:26:33.295Z,2.94
2022-11-28T22:29:00.826Z,2.86
2022-11-28T22:31:27.648Z,2.82
2022-11-28T22:33:54.027Z,2.80
2022-11-28T22:36:20.945Z,2.85
2022-11-28T22:38:49.386Z,2.88
2022-11-28T22:41:24.876Z,2.93
2022-11-28T22:43:55.612Z,2.88
2022-11-28T22:46:22.189Z,2.82
2022-11-28T22:48:48.640Z,2.82
2022-11-28T22:51:18.811Z,2.83
2022-11-28T22:53:45.333Z,2.86
2022-11-28T22:56:14.608Z,2.84
2022-11-28T22:58:44.474Z,2.81
2022-11-28T23:01:24.457Z,2.80
2022-11-28T23:03:51.527Z,2.92
2022-11-28T23:06:29.712Z,2.91
2022-11-28T23:08:58.208Z,2.93
2022-11-28T23:11:27.628Z,2.98
2022-11-28T23:13:55.184Z,3.01
2022-11-28T23:16:25.675Z,3.03
2022-11-28T23:18:55.642Z,2.92
2022-11-28T23:21:24.746Z,2.87
2022-11-28T23:23:51.657Z,2.87
2022-11-28T23:26:21.528Z,2.89
2022-11-28T23:28:48.861Z,2.91
2022-11-28T23:31:18.340Z,2.88
2022-11-28T23:33:45.171Z,2.84
2022-11-28T23:36:22.285Z,2.83
2022-11-28T23:38:52.260Z,2.83
2022-11-28T23:41:19.261Z,2.81
2022-11-28T23:43:46.598Z,2.88
2022-11-28T23:46:15.251Z,2.92
2022-11-28T23:48:43.574Z,2.94
2022-11-28T23:51:12.683Z,2.93
2022-11-28T23:53:40.834Z,2.98
2022-11-28T23:56:13.078Z,3.02
2022-11-28T23:58:39.889Z,3.06
